Terminal Aerodrome Forecast
Issued by NWS Cleveland, OH

Home | Current Version | Previous Version | Text Only | Print | Product List | Glossary On
Versions: 1 2 3 4 5 6 7 8 9 10 11 12 13 14 15 16 17 18
000
FTUS41 KCLE 051305 AAA
TAFCAK
TAF AMD
KCAK 051305Z 0513/0612 25008KT P6SM SCT012 OVC025
      TEMPO 0513/0516 BKN012
     FM052300 VRB04KT P6SM SCT025 BKN200
     FM060800 09008KT P6SM SCT100 OVC200=

USA.gov is the U.S. government's official web portal to all federal, state and local government web resources and services.